Time;durP1;ratioP1;P1;durP2;ratioP2;P2;SDS_P1;SDS_P2;PMS_P1;PMS_P2;Temp;Humidity;BMP_temperature;BMP_pressure;BME280_temperature;BME280_humidity;BME280_pressure;Samples;Min_cycle;Max_cycle;Signal;HPM_P1;HPM_P2
2021/10/28 00:14:21;;;;;;;1999.90;999.90;;;2.20;99.90;;;;;;5116321;28;20079;-81
2021/10/28 00:16:49;;;;;;;1999.90;999.90;;;2.10;99.90;;;;;;5115103;28;20051;-80
2021/10/28 00:19:15;;;;;;;1999.90;999.90;;;2.00;99.90;;;;;;5115985;28;20023;-81
2021/10/28 00:21:41;;;;;;;1999.90;999.90;;;2.00;99.90;;;;;;5114364;28;20383;-81
2021/10/28 00:24:10;;;;;;;1999.90;999.90;;;2.00;99.90;;;;;;5114541;28;20034;-81
2021/10/28 00:26:39;;;;;;;1999.90;999.90;;;1.90;99.90;;;;;;5114610;28;20459;-81
2021/10/28 00:29:08;;;;;;;1999.90;999.90;;;1.80;99.90;;;;;;5114663;28;20016;-82
2021/10/28 00:31:37;;;;;;;1999.90;999.90;;;1.90;99.90;;;;;;5114299;28;20555;-80
2021/10/28 00:34:05;;;;;;;1999.90;999.90;;;2.00;99.90;;;;;;5114412;28;20027;-80
2021/10/28 00:36:31;;;;;;;1999.90;999.90;;;2.00;99.90;;;;;;5114801;28;20077;-81
2021/10/28 00:38:58;;;;;;;1999.90;999.90;;;2.00;99.90;;;;;;5114218;28;20026;-82
2021/10/28 00:41:25;;;;;;;1999.90;999.90;;;1.90;99.90;;;;;;5114687;28;20019;-81
2021/10/28 00:43:59;;;;;;;1999.90;999.90;;;1.90;99.90;;;;;;5115480;28;20463;-80
2021/10/28 00:46:28;;;;;;;1999.90;999.90;;;1.80;99.90;;;;;;5113987;28;20402;-80
2021/10/28 00:48:55;;;;;;;1999.90;999.90;;;1.80;99.90;;;;;;5113855;28;20518;-81
2021/10/28 00:51:24;;;;;;;1999.90;999.90;;;1.80;99.90;;;;;;5115149;28;20031;-81
2021/10/28 00:53:50;;;;;;;1999.90;999.90;;;1.70;99.90;;;;;;5114176;28;20038;-83
2021/10/28 00:56:21;;;;;;;1999.90;999.90;;;1.70;99.90;;;;;;5113952;28;20490;-81
2021/10/28 00:58:47;;;;;;;1999.90;999.90;;;1.70;99.90;;;;;;5114034;28;20490;-83
2021/10/28 01:01:14;;;;;;;1999.90;999.90;;;1.70;99.90;;;;;;5113765;28;20023;-81
2021/10/28 01:03:40;;;;;;;1999.90;999.90;;;1.70;99.90;;;;;;5113913;28;20043;-81
2021/10/28 01:06:08;;;;;;;1999.90;999.90;;;1.70;99.90;;;;;;5113920;28;20036;-81
2021/10/28 01:08:38;;;;;;;1999.90;999.90;;;1.70;99.90;;;;;;5113840;28;20020;-82
2021/10/28 01:11:05;;;;;;;1999.90;999.90;;;1.70;99.90;;;;;;5113885;28;20024;-81
2021/10/28 01:13:31;;;;;;;1999.90;999.90;;;1.70;99.90;;;;;;5113770;28;20027;-80
2021/10/28 01:15:56;;;;;;;1999.90;999.90;;;1.80;99.90;;;;;;5113693;28;20028;-81
2021/10/28 01:18:23;;;;;;;1999.90;999.90;;;1.90;99.90;;;;;;5113816;28;20027;-80
2021/10/28 01:20:52;;;;;;;1999.90;999.90;;;1.80;99.90;;;;;;5113721;28;20153;-80
2021/10/28 01:23:21;;;;;;;1999.90;999.90;;;1.70;99.90;;;;;;5114007;28;20049;-82
2021/10/28 01:25:52;;;;;;;1999.90;999.90;;;1.70;99.90;;;;;;5113750;28;20028;-81
2021/10/28 01:28:19;;;;;;;1999.90;999.90;;;1.70;99.90;;;;;;5113815;28;20020;-81
2021/10/28 01:30:56;;;;;;;1999.90;999.90;;;1.70;99.90;;;;;;5113372;28;20106;-81
2021/10/28 01:33:22;;;;;;;1999.90;999.90;;;1.60;99.90;;;;;;5113700;28;20023;-80
2021/10/28 01:35:48;;;;;;;1999.90;999.90;;;1.60;99.90;;;;;;5113419;28;20028;-80
2021/10/28 01:38:15;;;;;;;1999.90;999.90;;;1.60;99.90;;;;;;5113634;28;20415;-79
2021/10/28 01:40:42;;;;;;;1999.90;999.90;;;1.60;99.90;;;;;;5114817;28;20020;-81
2021/10/28 01:43:09;;;;;;;1999.90;999.90;;;1.50;99.90;;;;;;5113380;28;20023;-80
2021/10/28 01:45:35;;;;;;;1999.90;999.90;;;1.50;99.90;;;;;;5113429;28;20249;-82
2021/10/28 01:48:01;;;;;;;1999.90;999.90;;;1.50;99.90;;;;;;5113454;28;20493;-81
2021/10/28 01:50:31;;;;;;;1999.90;999.90;;;1.40;99.90;;;;;;5112042;28;20505;-82
2021/10/28 01:52:57;;;;;;;1999.90;999.90;;;1.50;99.90;;;;;;5113485;28;20019;-81
2021/10/28 01:55:23;;;;;;;1999.90;999.90;;;1.50;99.90;;;;;;5113307;28;20031;-81
2021/10/28 01:57:49;;;;;;;1999.90;999.90;;;1.40;99.90;;;;;;5113589;28;20019;-80
2021/10/28 02:00:18;;;;;;;1999.90;999.90;;;1.40;99.90;;;;;;5114500;28;20055;-80
2021/10/28 02:02:45;;;;;;;1999.90;999.90;;;1.40;99.90;;;;;;5112882;28;20064;-81
2021/10/28 02:05:16;;;;;;;1999.90;999.90;;;1.40;99.90;;;;;;5112945;28;20077;-80
2021/10/28 02:07:42;;;;;;;1999.90;999.90;;;1.40;99.90;;;;;;5114599;28;20019;-80
2021/10/28 02:10:10;;;;;;;1999.90;999.90;;;1.40;99.90;;;;;;5112885;28;20047;-81
2021/10/28 02:12:40;;;;;;;1999.90;999.90;;;1.40;99.90;;;;;;5113080;28;20023;-81
2021/10/28 02:15:08;;;;;;;1999.90;999.90;;;1.40;99.90;;;;;;5112962;28;20028;-80
2021/10/28 02:17:34;;;;;;;1999.90;999.90;;;1.30;99.90;;;;;;5112959;28;20076;-81
2021/10/28 02:20:00;;;;;;;1999.90;999.90;;;1.40;99.90;;;;;;5114428;28;20068;-81
2021/10/28 02:22:25;;;;;;;1999.90;999.90;;;1.30;99.90;;;;;;5113242;28;20027;-81
2021/10/28 02:24:51;;;;;;;1999.90;999.90;;;1.40;99.90;;;;;;5112988;28;20043;-80
2021/10/28 02:27:18;;;;;;;1999.90;999.90;;;1.40;99.90;;;;;;5113095;28;20023;-80
2021/10/28 02:29:44;;;;;;;1999.90;999.90;;;1.40;99.90;;;;;;5114359;28;20034;-82
2021/10/28 02:32:10;;;;;;;1999.90;999.90;;;1.40;99.90;;;;;;5112686;28;20034;-80
2021/10/28 02:34:37;;;;;;;1999.90;999.90;;;1.40;99.90;;;;;;5114034;28;20027;-81
2021/10/28 02:37:04;;;;;;;1999.90;999.90;;;1.30;99.90;;;;;;5112966;28;20016;-81
2021/10/28 02:39:30;;;;;;;1999.90;999.90;;;1.30;99.90;;;;;;5113037;28;20031;-80
2021/10/28 02:41:56;;;;;;;1999.90;999.90;;;1.30;99.90;;;;;;5112862;28;20145;-81
2021/10/28 02:44:21;;;;;;;1999.90;999.90;;;1.20;99.90;;;;;;5113457;28;20055;-81
2021/10/28 02:46:48;;;;;;;1999.90;999.90;;;1.20;99.90;;;;;;5112912;28;20118;-82
2021/10/28 02:49:14;;;;;;;1999.90;999.90;;;1.20;99.90;;;;;;5113433;28;20074;-81
2021/10/28 02:51:47;;;;;;;1999.90;999.90;;;1.10;99.90;;;;;;5112507;28;20058;-83
2021/10/28 02:54:18;;;;;;;1999.90;999.90;;;1.30;99.90;;;;;;5112804;28;20024;-81
2021/10/28 02:56:45;;;;;;;1999.90;999.90;;;1.20;99.90;;;;;;5112967;28;20485;-82
2021/10/28 02:59:10;;;;;;;1999.90;999.90;;;1.10;99.90;;;;;;5112605;28;20030;-82
2021/10/28 03:01:42;;;;;;;1999.90;999.90;;;1.20;99.90;;;;;;5116331;28;20471;-83
2021/10/28 03:04:09;;;;;;;1999.90;999.90;;;1.20;99.90;;;;;;5116112;28;20115;-81
2021/10/28 03:06:38;;;;;;;1999.90;999.90;;;1.20;99.90;;;;;;5116647;28;20031;-81
2021/10/28 03:09:04;;;;;;;1999.90;999.90;;;1.20;99.90;;;;;;5116108;28;20481;-81
2021/10/28 03:11:30;;;;;;;1999.90;999.90;;;1.20;99.90;;;;;;5116442;28;20040;-82
2021/10/28 03:13:56;;;;;;;1999.90;999.90;;;1.00;99.90;;;;;;5116256;28;20034;-81
2021/10/28 03:16:35;;;;;;;1999.90;999.90;;;1.00;99.90;;;;;;5116188;28;20114;-81
2021/10/28 03:26:59;;;;;;;1999.90;999.90;;;1.00;99.90;;;;;;5117652;28;20072;-82
2021/10/28 03:29:25;;;;;;;1999.90;999.90;;;0.90;99.90;;;;;;5115995;28;20019;-81
2021/10/28 03:31:51;;;;;;;1999.90;999.90;;;0.90;99.90;;;;;;5115818;28;20023;-80
2021/10/28 03:34:16;;;;;;;1999.90;999.90;;;1.00;99.90;;;;;;5116103;28;20027;-82
2021/10/28 03:37:27;;;;;;;1999.90;999.90;;;1.00;99.90;;;;;;5116843;28;20032;-81
2021/10/28 04:28:54;;;;;;;1999.90;999.90;;;0.60;99.90;;;;;;5116502;28;20105;-82
2021/10/28 04:29:33;;;;;;;1999.90;999.90;;;0.70;99.90;;;;;;5116853;28;20023;-80
2021/10/28 04:31:59;;;;;;;1999.90;999.90;;;0.60;99.90;;;;;;5115392;28;20088;-81
2021/10/28 04:34:25;;;;;;;1999.90;999.90;;;0.60;99.90;;;;;;5114573;28;20024;-82
2021/10/28 04:36:51;;;;;;;1999.90;999.90;;;1.70;99.90;;;;;;5119706;28;20026;-84
2021/10/28 04:39:17;;;;;;;1999.90;999.90;;;1.60;99.90;;;;;;5118116;28;20024;-83
2021/10/28 04:41:43;;;;;;;1999.90;999.90;;;1.60;99.90;;;;;;5115039;28;20081;-83
2021/10/28 04:44:11;;;;;;;1999.90;999.90;;;1.40;99.90;;;;;;5115917;28;20417;-84
2021/10/28 04:46:41;;;;;;;1999.90;999.90;;;1.10;99.90;;;;;;5114222;28;20114;-82
2021/10/28 04:49:07;;;;;;;1999.90;999.90;;;0.90;99.90;;;;;;5114515;28;20043;-82
2021/10/28 04:51:33;;;;;;;1999.90;999.90;;;1.00;99.90;;;;;;5114643;28;20070;-82
2021/10/28 04:53:59;;;;;;;1999.90;999.90;;;0.90;99.90;;;;;;5114459;28;20016;-82
2021/10/28 04:56:24;;;;;;;1999.90;999.90;;;0.80;99.90;;;;;;5114986;28;20020;-80
2021/10/28 04:58:50;;;;;;;1999.90;999.90;;;0.80;99.90;;;;;;5114092;28;20038;-81
2021/10/28 05:01:16;;;;;;;1999.90;999.90;;;0.70;99.90;;;;;;5114054;28;20046;-83
2021/10/28 05:03:41;;;;;;;1999.90;999.90;;;0.70;99.90;;;;;;5114398;28;20489;-82
2021/10/28 05:06:07;;;;;;;1999.90;999.90;;;0.50;99.90;;;;;;5113846;28;20036;-81
2021/10/28 05:08:34;;;;;;;1999.90;999.90;;;0.60;99.90;;;;;;5114352;28;20062;-82
2021/10/28 05:11:00;;;;;;;1999.90;999.90;;;0.70;99.90;;;;;;5114069;28;20058;-82
2021/10/28 05:13:26;;;;;;;1999.90;999.90;;;0.70;99.90;;;;;;5113542;28;20497;-81
2021/10/28 05:15:53;;;;;;;1999.90;999.90;;;0.70;99.90;;;;;;5113980;28;20063;-81
2021/10/28 05:18:21;;;;;;;1999.90;999.90;;;0.70;99.90;;;;;;5114174;28;20459;-80
2021/10/28 05:20:47;;;;;;;1999.90;999.90;;;0.80;99.90;;;;;;5113466;28;20106;-81
2021/10/28 05:23:13;;;;;;;1999.90;999.90;;;0.60;99.90;;;;;;5115286;28;20098;-81
2021/10/28 05:25:39;;;;;;;1999.90;999.90;;;0.80;99.90;;;;;;5113586;28;20036;-82
2021/10/28 05:28:05;;;;;;;1999.90;999.90;;;0.70;99.90;;;;;;5113614;28;20061;-81
2021/10/28 05:30:30;;;;;;;1999.90;999.90;;;0.80;99.90;;;;;;5113834;28;20108;-81
2021/10/28 05:32:57;;;;;;;1999.90;999.90;;;0.90;99.90;;;;;;5115295;28;20535;-80
2021/10/28 05:35:23;;;;;;;1999.90;999.90;;;0.90;99.90;;;;;;5114878;28;20457;-80
2021/10/28 05:37:49;;;;;;;1999.90;999.90;;;1.00;99.90;;;;;;5113445;28;20027;-85
2021/10/28 05:40:15;;;;;;;1999.90;999.90;;;1.20;99.90;;;;;;5113697;28;20034;-81
2021/10/28 05:42:48;;;;;;;1999.90;999.90;;;1.00;99.90;;;;;;5113936;28;20027;-82
2021/10/28 05:45:14;;;;;;;1999.90;999.90;;;1.10;99.90;;;;;;5113682;28;20550;-81
2021/10/28 05:47:40;;;;;;;1999.90;999.90;;;1.00;99.90;;;;;;5113225;28;20115;-82
2021/10/28 05:50:08;;;;;;;1999.90;999.90;;;1.00;99.90;;;;;;5114185;28;20089;-82
2021/10/28 05:52:34;;;;;;;1999.90;999.90;;;1.00;99.90;;;;;;5113514;28;20424;-84
2021/10/28 05:55:03;;;;;;;1999.90;999.90;;;1.00;99.90;;;;;;5113525;28;20031;-80
2021/10/28 05:57:30;;;;;;;1999.90;999.90;;;1.20;99.90;;;;;;5112688;28;20040;-80
2021/10/28 05:59:56;;;;;;;1999.90;999.90;;;1.10;99.90;;;;;;5112478;28;20031;-80
2021/10/28 06:02:22;;;;;;;1999.90;999.90;;;1.10;99.90;;;;;;5113733;28;20038;-80
2021/10/28 06:04:48;;;;;;;1999.90;999.90;;;1.00;99.90;;;;;;5112924;28;20046;-79
2021/10/28 06:07:13;;;;;;;1999.90;999.90;;;1.10;99.90;;;;;;5112729;28;20458;-79
2021/10/28 06:09:39;;;;;;;1999.90;999.90;;;1.10;99.90;;;;;;5113928;28;20020;-82
2021/10/28 06:12:06;;;;;;;1999.90;999.90;;;1.20;99.90;;;;;;5112284;28;20028;-80
2021/10/28 06:14:33;;;;;;;1999.90;999.90;;;1.20;99.90;;;;;;5113370;28;20520;-80
2021/10/28 06:17:07;;;;;;;1999.90;999.90;;;1.40;99.90;;;;;;5112751;28;20514;-79
2021/10/28 06:19:33;;;;;;;1999.90;999.90;;;1.30;99.90;;;;;;5112940;28;20724;-82
2021/10/28 06:21:58;;;;;;;1999.90;999.90;;;1.30;99.90;;;;;;5113354;28;20031;-82
2021/10/28 06:24:24;;;;;;;1999.90;999.90;;;1.30;99.90;;;;;;5113291;28;20374;-83
2021/10/28 06:26:50;;;;;;;1999.90;999.90;;;1.30;99.90;;;;;;5113582;28;20038;-81
2021/10/28 06:29:15;;;;;;;1999.90;999.90;;;1.30;99.90;;;;;;5113644;28;20169;-83
2021/10/28 06:31:43;;;;;;;1999.90;999.90;;;1.30;99.90;;;;;;5113173;28;20055;-82
2021/10/28 06:34:17;;;;;;;1999.90;999.90;;;3.60;99.90;;;;;;5113512;28;20093;-82
2021/10/28 06:36:43;;;;;;;1999.90;999.90;;;4.70;99.90;;;;;;5115936;28;20036;-81
2021/10/28 06:39:09;;;;;;;1999.90;999.90;;;3.90;99.90;;;;;;5117171;28;20363;-80
2021/10/28 06:41:35;;;;;;;1999.90;999.90;;;3.60;99.90;;;;;;5117444;28;20038;-81
2021/10/28 06:44:01;;;;;;;1999.90;999.90;;;3.00;99.90;;;;;;5116282;28;20119;-82
2021/10/28 06:46:28;;;;;;;1999.90;999.90;;;2.60;99.90;;;;;;5117412;28;20082;-81
2021/10/28 06:48:55;;;;;;;1999.90;999.90;;;2.30;99.90;;;;;;5117488;28;20043;-85
2021/10/28 06:51:22;;;;;;;1999.90;999.90;;;2.20;99.90;;;;;;5117744;28;20059;-83
2021/10/28 07:04:28;;;;;;;1999.90;999.90;;;2.20;99.90;;;;;;5118294;28;20383;-85
2021/10/28 07:06:54;;;;;;;1999.90;999.90;;;2.20;99.90;;;;;;5117065;28;20091;-83
2021/10/28 07:09:28;;;;;;;1999.90;999.90;;;2.30;99.90;;;;;;5117876;28;20023;-82
2021/10/28 07:14:35;;;;;;;1999.90;999.90;;;2.50;99.90;;;;;;5118252;27;20054;-82
2021/10/28 07:17:14;;;;;;;1999.90;999.90;;;2.50;99.90;;;;;;5116974;28;20031;-85
2021/10/28 07:27:47;;;;;;;1999.90;999.90;;;3.00;99.90;;;;;;5116797;28;20106;-81
2021/10/28 08:24:01;;;;;;;1999.90;999.90;;;5.20;99.90;;;;;;5116019;28;20028;-86
2021/10/28 08:29:45;;;;;;;1999.90;999.90;;;5.50;99.90;;;;;;5116787;28;20043;-85
2021/10/28 08:32:05;;;;;;;1999.90;999.90;;;5.60;99.90;;;;;;5114241;28;20043;-85
2021/10/28 08:34:36;;;;;;;1999.90;999.90;;;5.80;99.90;;;;;;5115384;28;20081;-84
2021/10/28 08:37:32;;;;;;;1999.90;999.90;;;5.90;99.90;;;;;;5115510;28;20024;-86
2021/10/28 08:39:53;;;;;;;1999.90;999.90;;;;;;;;;;5115612;28;20042;-83
2021/10/28 08:42:22;;;;;;;1999.90;999.90;;;6.20;99.90;;;;;;5116276;28;20084;-85
2021/10/28 08:44:50;;;;;;;1999.90;999.90;;;6.40;99.90;;;;;;5114731;28;20023;-84
2021/10/28 08:47:16;;;;;;;1999.90;999.90;;;6.50;99.90;;;;;;5115178;28;20023;-85
2021/10/28 09:25:36;;;;;;;1999.90;999.90;;;8.40;99.90;;;;;;5092006;28;20046;-82
2021/10/28 09:28:16;;;;;;;1999.90;999.90;;;8.50;99.90;;;;;;5113092;28;20023;-82
2021/10/28 09:30:58;;;;;;;1999.90;999.90;;;8.70;99.90;;;;;;5112806;28;20051;-82
2021/10/28 09:33:48;;;;;;;1999.90;999.90;;;8.80;99.90;;;;;;5113394;28;20031;-82
2021/10/28 09:48:30;;;;;;;1999.90;999.90;;;9.60;99.90;;;;;;5114786;28;20042;-85
2021/10/28 09:50:57;;;;;;;1999.90;999.90;;;9.80;99.90;;;;;;5113320;28;20037;-83
2021/10/28 09:58:28;;;;;;;1999.90;999.90;;;10.30;99.90;;;;;;5114691;28;20059;-83
2021/10/28 10:00:57;;;;;;;1999.90;999.90;;;10.40;99.90;;;;;;5113621;28;20031;-82
2021/10/28 10:03:30;;;;;;;1999.90;999.90;;;10.50;99.90;;;;;;5113286;28;20068;-84
2021/10/28 10:06:04;;;;;;;1999.90;999.90;;;10.70;99.90;;;;;;5112952;28;20032;-80
2021/10/28 10:08:34;;;;;;;1999.90;999.90;;;11.10;99.90;;;;;;5112806;28;20448;-83
2021/10/28 10:11:02;;;;;;;1999.90;999.90;;;11.30;99.90;;;;;;5112011;28;20020;-84
2021/10/28 10:13:29;;;;;;;1999.90;999.90;;;11.20;99.90;;;;;;5112627;28;20124;-82
2021/10/28 10:16:00;;;;;;;1999.90;999.90;;;11.30;99.90;;;;;;5112838;28;20028;-83
2021/10/28 10:18:27;;;;;;;1999.90;999.90;;;11.30;99.90;;;;;;5113117;28;20100;-82
2021/10/28 12:44:43;;;;;;;1999.90;999.90;;;12.70;89.20;;;;;;5114972;28;20519;-83
2021/10/28 12:50:10;;;;;;;1999.90;999.90;;;12.70;86.90;;;;;;5114947;28;20055;-81
2021/10/28 12:53:09;;;;;;;1999.90;999.90;;;12.70;86.40;;;;;;5114175;28;20035;-82
2021/10/28 13:50:26;;;;;;;1999.90;999.90;;;12.50;86.50;;;;;;5112979;28;20051;-82
2021/10/28 14:23:06;;;;;;;1999.90;999.90;;;12.00;89.00;;;;;;5112490;28;20039;-83
2021/10/28 15:28:17;;;;;;;1999.90;999.90;;;9.30;97.50;;;;;;5117108;28;20034;-83
2021/10/28 15:36:20;;;;;;;1999.90;999.90;;;8.80;99.90;;;;;;5116354;28;20034;-82
2021/10/28 15:38:57;;;;;;;1999.90;999.90;;;8.60;99.90;;;;;;5115228;28;20019;-82
2021/10/28 16:21:55;;;;;;;1999.90;999.90;;;6.70;99.90;;;;;;5114878;28;20160;-80
2021/10/28 16:24:33;;;;;;;1999.90;999.90;;;6.70;99.90;;;;;;5113362;28;20019;-73
2021/10/28 16:27:00;;;;;;;1999.90;999.90;;;6.60;99.90;;;;;;5114997;28;20031;-81
2021/10/28 16:29:26;;;;;;;1999.90;999.90;;;6.50;99.90;;;;;;5114696;28;20111;-76
2021/10/28 16:31:53;;;;;;;1999.90;999.90;;;6.40;99.90;;;;;;5114890;28;20110;-74
2021/10/28 16:34:19;;;;;;;1999.90;999.90;;;6.30;99.90;;;;;;5115174;28;20076;-77
2021/10/28 16:36:47;;;;;;;1999.90;999.90;;;6.20;99.90;;;;;;5115248;28;20106;-75
2021/10/28 16:39:14;;;;;;;1999.90;999.90;;;6.10;99.90;;;;;;5114787;28;20027;-79
2021/10/28 16:41:46;;;;;;;1999.90;999.90;;;6.00;99.90;;;;;;5114777;28;20352;-78
2021/10/28 16:44:13;;;;;;;1999.90;999.90;;;5.90;99.90;;;;;;5114372;28;20020;-77
2021/10/28 16:46:39;;;;;;;1999.90;999.90;;;5.80;99.90;;;;;;5114310;28;20038;-78
2021/10/28 16:49:07;;;;;;;1999.90;999.90;;;5.70;99.90;;;;;;5114168;28;20096;-79
2021/10/28 16:51:33;;;;;;;1999.90;999.90;;;5.60;99.90;;;;;;5113380;28;20024;-79
2021/10/28 16:53:59;;;;;;;1999.90;999.90;;;5.60;99.90;;;;;;5114732;28;20028;-82
2021/10/28 16:56:25;;;;;;;1999.90;999.90;;;5.50;99.90;;;;;;5113861;28;20043;-80
2021/10/28 16:58:51;;;;;;;1999.90;999.90;;;5.40;99.90;;;;;;5114038;28;20028;-81
2021/10/28 17:01:17;;;;;;;1999.90;999.90;;;5.30;99.90;;;;;;5114005;28;20028;-81
2021/10/28 17:03:43;;;;;;;1999.90;999.90;;;5.30;99.90;;;;;;5113830;28;20015;-81
2021/10/28 17:06:11;;;;;;;1999.90;999.90;;;5.20;99.90;;;;;;5113847;28;20038;-82
2021/10/28 17:08:37;;;;;;;1999.90;999.90;;;5.10;99.90;;;;;;5114348;28;20058;-82
2021/10/28 17:11:03;;;;;;;1999.90;999.90;;;5.10;99.90;;;;;;5113803;28;20028;-82
2021/10/28 17:13:29;;;;;;;1999.90;999.90;;;5.00;99.90;;;;;;5113734;28;20019;-82
2021/10/28 17:15:55;;;;;;;1999.90;999.90;;;5.00;99.90;;;;;;5113707;28;20069;-82
2021/10/28 17:18:21;;;;;;;1999.90;999.90;;;4.80;99.90;;;;;;5113421;28;20048;-83
2021/10/28 17:20:47;;;;;;;1999.90;999.90;;;4.80;99.90;;;;;;5113411;28;20069;-83
2021/10/28 17:23:15;;;;;;;1999.90;999.90;;;4.80;99.90;;;;;;5113380;28;20073;-84
2021/10/28 17:25:46;;;;;;;1999.90;999.90;;;4.70;99.90;;;;;;5113369;28;20085;-81
2021/10/28 17:28:12;;;;;;;1999.90;999.90;;;4.70;99.90;;;;;;5113643;28;20080;-83
2021/10/28 17:30:38;;;;;;;1999.90;999.90;;;4.60;99.90;;;;;;5113908;28;20032;-82
2021/10/28 17:33:06;;;;;;;1999.90;999.90;;;4.60;99.90;;;;;;5113464;28;20030;-84
2021/10/28 17:35:32;;;;;;;1999.90;999.90;;;4.50;99.90;;;;;;5113068;28;20036;-82
2021/10/28 17:37:57;;;;;;;1999.90;999.90;;;4.60;99.90;;;;;;5113586;28;20080;-82
2021/10/28 17:40:24;;;;;;;1999.90;999.90;;;4.50;99.90;;;;;;5113237;28;20023;-82
2021/10/28 17:42:53;;;;;;;1999.90;999.90;;;4.50;99.90;;;;;;5113344;28;20115;-81
2021/10/28 17:45:21;;;;;;;1999.90;999.90;;;4.50;99.90;;;;;;5112999;28;20028;-82
2021/10/28 17:47:46;;;;;;;1999.90;999.90;;;4.40;99.90;;;;;;5113258;28;20023;-81
2021/10/28 17:50:13;;;;;;;1999.90;999.90;;;4.40;99.90;;;;;;5113854;28;20058;-81
2021/10/28 17:52:39;;;;;;;1999.90;999.90;;;4.40;99.90;;;;;;5113314;28;20379;-81
2021/10/28 17:55:07;;;;;;;1999.90;999.90;;;4.30;99.90;;;;;;5112189;28;20497;-80
2021/10/28 17:57:32;;;;;;;1999.90;999.90;;;4.30;99.90;;;;;;5112874;28;20051;-81
2021/10/28 17:59:58;;;;;;;1999.90;999.90;;;4.30;99.90;;;;;;5112687;28;20085;-81
2021/10/28 18:02:24;;;;;;;1999.90;999.90;;;4.30;99.90;;;;;;5112811;28;20031;-82
2021/10/28 18:04:51;;;;;;;1999.90;999.90;;;4.20;99.90;;;;;;5112738;28;20090;-81
2021/10/28 18:07:17;;;;;;;1999.90;999.90;;;4.10;99.90;;;;;;5112685;28;20026;-81
2021/10/28 18:09:44;;;;;;;1999.90;999.90;;;4.00;99.90;;;;;;5113607;28;20024;-84
2021/10/28 18:12:11;;;;;;;1999.90;999.90;;;4.00;99.90;;;;;;5113803;28;20027;-81
2021/10/28 18:14:36;;;;;;;1999.90;999.90;;;4.00;99.90;;;;;;5112387;28;20024;-80
2021/10/28 18:17:03;;;;;;;1999.90;999.90;;;4.00;99.90;;;;;;5112775;28;20049;-82
2021/10/28 18:19:29;;;;;;;1999.90;999.90;;;3.90;99.90;;;;;;5114190;28;20375;-81
2021/10/28 18:21:56;;;;;;;1999.90;999.90;;;3.80;99.90;;;;;;5113488;28;20024;-82
2021/10/28 18:24:23;;;;;;;1999.90;999.90;;;3.80;99.90;;;;;;5114016;28;20375;-84
2021/10/28 18:26:49;;;;;;;1999.90;999.90;;;3.80;99.90;;;;;;5112674;28;20483;-82
2021/10/28 18:29:15;;;;;;;1999.90;999.90;;;3.80;99.90;;;;;;5112866;28;20026;-80
2021/10/28 18:31:41;;;;;;;1999.90;999.90;;;3.80;99.90;;;;;;5113699;28;20069;-81
2021/10/28 18:34:08;;;;;;;1999.90;999.90;;;3.80;99.90;;;;;;5116623;28;20386;-81
2021/10/28 18:36:36;;;;;;;1999.90;999.90;;;3.70;99.90;;;;;;5118032;28;20023;-81
2021/10/28 18:39:04;;;;;;;1999.90;999.90;;;3.60;99.90;;;;;;5116648;28;20474;-81
2021/10/28 18:41:31;;;;;;;1999.90;999.90;;;3.60;99.90;;;;;;5116813;28;20023;-81
2021/10/28 18:43:57;;;;;;;1999.90;999.90;;;3.50;99.90;;;;;;5117756;27;20031;-80
2021/10/28 18:46:23;;;;;;;1999.90;999.90;;;3.50;99.90;;;;;;5116945;28;20134;-82
2021/10/28 18:48:53;;;;;;;1999.90;999.90;;;3.50;99.90;;;;;;5116582;28;20048;-81
2021/10/28 18:51:20;;;;;;;1999.90;999.90;;;3.50;99.90;;;;;;5116737;28;20030;-81
2021/10/28 18:53:48;;;;;;;1999.90;999.90;;;3.40;99.90;;;;;;5117708;28;20026;-81
2021/10/28 18:56:15;;;;;;;1999.90;999.90;;;3.40;99.90;;;;;;5117591;28;20053;-82
2021/10/28 18:58:42;;;;;;;1999.90;999.90;;;3.40;99.90;;;;;;5117597;28;20019;-83
2021/10/28 19:01:09;;;;;;;1999.90;999.90;;;3.40;99.90;;;;;;5116001;28;20070;-79
2021/10/28 19:03:36;;;;;;;1999.90;999.90;;;3.40;99.90;;;;;;5115927;28;20030;-82
2021/10/28 19:06:02;;;;;;;1999.90;999.90;;;3.30;99.90;;;;;;5115565;28;20375;-80
2021/10/28 19:08:28;;;;;;;1999.90;999.90;;;3.30;99.90;;;;;;5115705;28;20110;-80
2021/10/28 19:10:54;;;;;;;1999.90;999.90;;;3.30;99.90;;;;;;5115535;28;20482;-83
2021/10/28 19:13:20;;;;;;;1999.90;999.90;;;3.30;99.90;;;;;;5116075;28;20107;-80
2021/10/28 19:15:46;;;;;;;1999.90;999.90;;;3.20;99.90;;;;;;5114754;28;20120;-79
2021/10/28 19:18:13;;;;;;;1999.90;999.90;;;3.30;99.90;;;;;;5115450;28;20020;-79
2021/10/28 19:20:38;;;;;;;1999.90;999.90;;;3.20;99.90;;;;;;5115536;28;20038;-80
2021/10/28 19:23:07;;;;;;;1999.90;999.90;;;3.10;99.90;;;;;;5115616;28;20099;-80
2021/10/28 19:25:34;;;;;;;1999.90;999.90;;;3.20;99.90;;;;;;5116116;28;20046;-82
2021/10/28 19:28:01;;;;;;;1999.90;999.90;;;3.20;99.90;;;;;;5116453;28;20050;-79
2021/10/28 19:30:33;;;;;;;1999.90;999.90;;;3.20;99.90;;;;;;5115482;28;20028;-80
2021/10/28 19:33:06;;;;;;;1999.90;999.90;;;3.10;99.90;;;;;;5116404;27;20803;-81
2021/10/28 19:35:33;;;;;;;1999.90;999.90;;;3.10;99.90;;;;;;5115221;28;20055;-82
2021/10/28 19:48:20;;;;;;;1999.90;999.90;;;3.10;99.90;;;;;;5115910;28;20022;-80
2021/10/28 19:50:47;;;;;;;1999.90;999.90;;;3.00;99.90;;;;;;5114712;28;20091;-80
2021/10/28 19:53:13;;;;;;;1999.90;999.90;;;3.00;99.90;;;;;;5114742;28;20126;-80
2021/10/28 19:55:40;;;;;;;1999.90;999.90;;;2.90;99.90;;;;;;5114485;28;20012;-80
2021/10/28 19:58:09;;;;;;;1999.90;999.90;;;2.90;99.90;;;;;;5116047;28;20517;-79
2021/10/28 20:00:41;;;;;;;1999.90;999.90;;;2.90;99.90;;;;;;5114969;28;20023;-80
2021/10/28 20:21:25;;;;;;;1999.90;999.90;;;2.80;99.90;;;;;;5115501;28;20046;-79
2021/10/28 20:23:50;;;;;;;1999.90;999.90;;;2.70;99.90;;;;;;5114451;28;20471;-79
2021/10/28 20:26:17;;;;;;;1999.90;999.90;;;2.60;99.90;;;;;;5115055;28;20063;-79
2021/10/28 20:28:47;;;;;;;1999.90;999.90;;;2.60;99.90;;;;;;5114247;28;20378;-80
2021/10/28 20:31:13;;;;;;;1999.90;999.90;;;2.50;99.90;;;;;;5113893;28;20023;-80
2021/10/28 20:33:51;;;;;;;1999.90;999.90;;;2.50;99.90;;;;;;5113885;28;20102;-79
2021/10/28 20:39:04;;;;;;;1999.90;999.90;;;2.50;99.90;;;;;;5114250;28;20023;-79
2021/10/28 20:41:30;;;;;;;1999.90;999.90;;;2.50;99.90;;;;;;5113669;28;20139;-79
2021/10/28 20:43:57;;;;;;;1999.90;999.90;;;2.40;99.90;;;;;;5114574;28;20024;-79
2021/10/28 20:46:25;;;;;;;1999.90;999.90;;;2.40;99.90;;;;;;5114530;28;20529;-79
2021/10/28 20:48:54;;;;;;;1999.90;999.90;;;2.30;99.90;;;;;;5113401;28;20079;-80
2021/10/28 20:51:21;;;;;;;1999.90;999.90;;;2.30;99.90;;;;;;5113893;28;20038;-79
2021/10/28 20:53:47;;;;;;;1999.90;999.90;;;2.40;99.90;;;;;;5113464;28;20370;-80
2021/10/28 20:56:12;;;;;;;1999.90;999.90;;;2.30;99.90;;;;;;5112670;28;20028;-79
2021/10/28 20:58:38;;;;;;;1999.90;999.90;;;2.20;99.90;;;;;;5113006;28;20034;-79
2021/10/28 21:01:05;;;;;;;1999.90;999.90;;;2.20;99.90;;;;;;5114650;28;20031;-80
2021/10/28 21:03:31;;;;;;;1999.90;999.90;;;2.10;99.90;;;;;;5113156;28;20138;-80
2021/10/28 21:05:58;;;;;;;1999.90;999.90;;;2.10;99.90;;;;;;5113242;28;20118;-79
2021/10/28 21:08:25;;;;;;;1999.90;999.90;;;2.10;99.90;;;;;;5113202;28;20386;-79
2021/10/28 21:10:52;;;;;;;1999.90;999.90;;;2.10;99.90;;;;;;5114136;28;20030;-80
2021/10/28 21:13:17;;;;;;;1999.90;999.90;;;2.00;99.90;;;;;;5114392;28;20016;-79
2021/10/28 21:15:43;;;;;;;1999.90;999.90;;;2.10;99.90;;;;;;5113409;28;20611;-79
2021/10/28 21:18:09;;;;;;;1999.90;999.90;;;2.10;99.90;;;;;;5113011;28;20046;-79
2021/10/28 21:20:35;;;;;;;1999.90;999.90;;;2.20;99.90;;;;;;5112829;28;20027;-79
2021/10/28 21:23:01;;;;;;;1999.90;999.90;;;2.20;99.90;;;;;;5113613;28;20485;-78
2021/10/28 21:25:29;;;;;;;1999.90;999.90;;;2.30;99.90;;;;;;5112768;28;20036;-81
2021/10/28 21:27:55;;;;;;;1999.90;999.90;;;2.10;99.90;;;;;;5112643;28;20027;-79
2021/10/28 21:30:22;;;;;;;1999.90;999.90;;;2.10;99.90;;;;;;5112645;28;20024;-79
2021/10/28 21:32:47;;;;;;;1999.90;999.90;;;2.10;99.90;;;;;;5112637;28;20035;-79
2021/10/28 21:35:14;;;;;;;1999.90;999.90;;;2.10;99.90;;;;;;5112364;28;20105;-79
2021/10/28 21:37:42;;;;;;;1999.90;999.90;;;2.00;99.90;;;;;;5112363;28;20134;-79
2021/10/28 21:40:09;;;;;;;1999.90;999.90;;;2.00;99.90;;;;;;5112508;28;20032;-79
2021/10/28 21:42:36;;;;;;;1999.90;999.90;;;2.00;99.90;;;;;;5113130;28;20032;-79